Strona główna
METAR-TAF:

METAR-TAF

Lotnisko :

Port lotniczy Szalif

Szalif, Algieria

Szerokość geograficzna: 36-13N, Długość geograficzna: 001-20E, wysokość: 143 m

Aktualna obserwacja pogody

Raport powstał 1 godzina i 18 minut temu, godzina 17:00 UTC
Wiatr 8 kt od północ
Temperatura 36°C
Wilgotność 21%
Ciśnienie 1008 hPa
Widzialność 10 km lub więcej
Brak chmur poniżej 1500 m i brak chmur cumulonimbus

METAR: DAOI 251700Z 36008KT CAVOK 36/10 Q1008

czas: 19:18 (18:18 UTC)

Prognoza

Raport powstał 1 godzina i 18 minut temu, godzina 17:00 UTC
Prognoza ważna od 25 godzina 18 UTC do 26 godzina 18 UTC
Wiatr 8 kt od północno-północny zachód
Widzialność 10 km lub więcej
Brak chmur poniżej 1500 m i brak chmur cumulonimbus
Stopniowe zmiany
od 25 godzina 20 UTC do 25 godzina 22 UTC
Wiatr 2 kt z kierunków zmiennych

TAF: DAOI 251700Z 2518/2618 34008KT CAVOK BECMG 2520/2522 VRB02KT

Obserwacja i prognoza pogody dla ponad 4000 lotnisk (raport METAR i TAF).

Dostępne stacje oznaczono żółtymi i czerwonymi punktami na mapie.

Najedź kursorem aby zobaczyć nazwę stacji.

Kliknij aby zobaczyć obserwacje i prognozy pogody.

Aby zmienić mapę: kliknij na zielony przycisk z czarnym krzyżykiem, aby powiększyć; na zielony przycisk z myślnikiem, aby pomniejszyć; na zielone strzałki, aby przejść do map sąsiednich.


METAR-TAF: